createdAt,value
2019-04-28T00:00:44.645Z,9.53
2019-04-28T00:03:14.761Z,9.30
2019-04-28T00:05:44.760Z,9.38
2019-04-28T00:08:14.650Z,9.30
2019-04-28T00:10:44.585Z,9.23
2019-04-28T00:13:14.672Z,9.33
2019-04-28T00:15:44.701Z,9.18
2019-04-28T00:18:14.575Z,10.45
2019-04-28T00:21:02.679Z,8.95
2019-04-28T00:23:36.955Z,9.78
2019-04-28T00:26:17.421Z,9.43
2019-04-28T00:28:47.321Z,10.03
2019-04-28T00:31:17.190Z,9.40
2019-04-28T00:33:47.122Z,9.95
2019-04-28T00:36:17.019Z,9.08
2019-04-28T00:38:46.977Z,9.25
2019-04-28T00:41:16.959Z,8.65
2019-04-28T00:43:46.877Z,8.60
2019-04-28T00:46:18.359Z,8.83
2019-04-28T00:48:48.235Z,9.50
2019-04-28T00:51:18.090Z,9.15
2019-04-28T00:53:47.994Z,8.78
2019-04-28T00:56:17.863Z,9.20
2019-04-28T00:58:47.751Z,9.20
2019-04-28T01:01:22.294Z,8.65
2019-04-28T01:03:52.226Z,9.40
2019-04-28T01:06:22.298Z,8.83
2019-04-28T01:08:53.566Z,9.48
2019-04-28T01:11:23.550Z,9.50
2019-04-28T01:13:53.484Z,8.63
2019-04-28T01:16:30.860Z,8.85
2019-04-28T01:19:02.485Z,8.88
2019-04-28T01:21:50.317Z,9.23
2019-04-28T01:24:20.291Z,8.25
2019-04-28T01:26:51.726Z,8.35
2019-04-28T01:29:21.659Z,9.28
2019-04-28T01:31:53.121Z,8.85
2019-04-28T01:34:24.323Z,8.18
2019-04-28T01:36:54.432Z,7.90
2019-04-28T01:39:24.294Z,9.05
2019-04-28T01:41:54.160Z,8.93
2019-04-28T01:44:24.110Z,8.03
2019-04-28T01:46:53.971Z,7.72
2019-04-28T01:49:23.918Z,8.35
2019-04-28T01:52:01.370Z,8.73
2019-04-28T01:54:31.366Z,8.53
2019-04-28T01:57:01.650Z,7.80
2019-04-28T01:59:31.757Z,8.93
2019-04-28T02:02:02.909Z,8.43
2019-04-28T02:04:33.826Z,9.85
2019-04-28T02:07:04.821Z,8.53
2019-04-28T02:09:34.770Z,8.35
2019-04-28T02:12:04.726Z,7.80
2019-04-28T02:14:34.621Z,8.93
2019-04-28T02:17:04.532Z,7.65
2019-04-28T02:19:34.414Z,7.70
2019-04-28T02:22:05.866Z,9.00
2019-04-28T02:24:37.304Z,7.37
2019-04-28T02:27:07.255Z,9.08
2019-04-28T02:29:37.124Z,8.80
2019-04-28T02:32:10.377Z,8.98
2019-04-28T02:34:41.494Z,7.80
2019-04-28T02:37:11.638Z,8.38
2019-04-28T02:39:41.582Z,7.37
2019-04-28T02:42:12.503Z,8.60
2019-04-28T02:44:43.410Z,8.20
2019-04-28T02:47:13.320Z,7.80
2019-04-28T02:49:50.496Z,7.30
2019-04-28T02:52:22.100Z,8.40
2019-04-28T02:54:51.994Z,8.15
2019-04-28T02:57:21.916Z,7.50
2019-04-28T02:59:51.805Z,7.57
2019-04-28T03:02:21.735Z,8.55
2019-04-28T03:04:52.636Z,7.70
2019-04-28T03:07:22.531Z,7.87
2019-04-28T03:09:52.522Z,7.37
2019-04-28T03:12:23.387Z,7.35
2019-04-28T03:14:53.347Z,8.20
2019-04-28T03:17:23.229Z,7.75
2019-04-28T03:19:53.142Z,7.97
2019-04-28T03:22:23.062Z,7.67
2019-04-28T03:24:54.573Z,8.10
2019-04-28T03:27:31.014Z,7.80
2019-04-28T03:30:23.093Z,7.87
2019-04-28T03:32:59.790Z,7.90
2019-04-28T03:35:24.860Z,7.97
2019-04-28T03:37:54.842Z,8.10
2019-04-28T03:40:24.751Z,7.70
2019-04-28T03:42:54.670Z,8.53
2019-04-28T03:45:26.218Z,8.10
2019-04-28T03:47:56.190Z,8.75
2019-04-28T03:50:26.097Z,8.55
2019-04-28T03:52:57.015Z,8.73
2019-04-28T03:55:26.960Z,9.40
2019-04-28T03:57:56.881Z,8.68
2019-04-28T04:00:26.789Z,8.87
2019-04-28T04:02:56.756Z,9.58
2019-04-28T04:05:26.655Z,8.85
2019-04-28T04:07:56.558Z,8.77
2019-04-28T04:10:30.576Z,9.45
2019-04-28T04:13:07.491Z,8.78
2019-04-28T04:15:54.898Z,8.90
2019-04-28T04:18:32.418Z,9.10
2019-04-28T04:21:02.469Z,9.25
2019-04-28T04:23:32.316Z,8.70
2019-04-28T04:26:02.186Z,9.35
2019-04-28T04:28:32.058Z,9.80
2019-04-28T04:31:03.152Z,9.23
2019-04-28T04:33:34.445Z,10.10
2019-04-28T04:36:04.506Z,10.48
2019-04-28T04:38:34.375Z,9.18
2019-04-28T04:41:04.567Z,10.78
2019-04-28T04:43:34.537Z,9.93
2019-04-28T04:46:15.336Z,10.23
2019-04-28T04:48:46.194Z,10.73
2019-04-28T04:51:16.234Z,10.40
2019-04-28T04:53:46.119Z,9.63
2019-04-28T04:56:16.033Z,10.43
2019-04-28T04:58:45.959Z,10.77
2019-04-28T05:01:17.393Z,10.27
2019-04-28T05:03:49.789Z,10.70
2019-04-28T05:06:41.201Z,10.93
2019-04-28T05:09:10.795Z,11.30
2019-04-28T05:11:40.949Z,10.83
2019-04-28T05:14:12.025Z,10.93
2019-04-28T05:16:42.317Z,10.30
2019-04-28T05:19:12.212Z,11.70
2019-04-28T05:21:42.114Z,11.05
2019-04-28T05:24:31.711Z,10.90
2019-04-28T05:27:01.669Z,10.77
2019-04-28T05:29:31.537Z,11.80
2019-04-28T05:32:03.420Z,11.07
2019-04-28T05:34:32.897Z,11.65
2019-04-28T05:37:02.823Z,11.30
2019-04-28T05:39:32.778Z,11.10
2019-04-28T05:42:02.712Z,11.97
2019-04-28T05:44:32.632Z,11.40
2019-04-28T05:47:02.794Z,11.40
2019-04-28T05:49:34.333Z,11.20
2019-04-28T05:52:22.073Z,11.40
2019-04-28T05:54:53.562Z,11.05
2019-04-28T05:57:24.994Z,11.70
2019-04-28T06:00:12.341Z,12.40
2019-04-28T06:02:55.922Z,12.70
2019-04-28T06:05:19.930Z,11.13
2019-04-28T06:07:51.282Z,12.40
2019-04-28T06:10:21.175Z,11.45
2019-04-28T06:12:51.091Z,11.68
2019-04-28T06:15:20.997Z,11.53
2019-04-28T06:17:50.947Z,11.90
2019-04-28T06:20:21.002Z,12.43
2019-04-28T06:22:50.986Z,11.57
2019-04-28T06:25:20.873Z,12.30
2019-04-28T06:27:50.795Z,12.10
2019-04-28T06:30:20.866Z,12.18
2019-04-28T06:32:50.756Z,11.53
2019-04-28T06:35:20.678Z,11.85
2019-04-28T06:37:50.554Z,11.33
2019-04-28T06:40:21.541Z,12.15
2019-04-28T06:42:51.426Z,12.23
2019-04-28T06:45:21.315Z,12.20
2019-04-28T06:47:51.234Z,11.80
2019-04-28T06:50:21.139Z,13.00
2019-04-28T06:52:51.080Z,12.05
2019-04-28T06:55:21.062Z,11.63
2019-04-28T06:57:50.998Z,12.50
2019-04-28T07:00:21.044Z,12.45
2019-04-28T07:02:50.939Z,12.37
2019-04-28T07:05:20.849Z,11.17
2019-04-28T07:07:50.746Z,11.30
2019-04-28T07:10:20.687Z,12.30
2019-04-28T07:12:50.601Z,11.85
2019-04-28T07:15:20.587Z,10.95
2019-04-28T07:17:50.546Z,11.35
2019-04-28T07:20:38.082Z,11.57
2019-04-28T07:23:10.506Z,11.53
2019-04-28T07:25:40.460Z,10.80
2019-04-28T07:28:10.429Z,11.68
2019-04-28T07:30:41.620Z,10.85
2019-04-28T07:33:11.710Z,11.05
2019-04-28T07:35:41.601Z,10.58
2019-04-28T07:38:11.499Z,11.13
2019-04-28T07:40:41.536Z,11.22
2019-04-28T07:43:11.470Z,10.63
2019-04-28T07:45:41.399Z,11.37
2019-04-28T07:48:11.363Z,10.17
2019-04-28T07:50:41.435Z,10.82
2019-04-28T07:53:19.041Z,10.53
2019-04-28T07:55:49.073Z,14.35
2019-04-28T07:58:18.976Z,10.88
2019-04-28T08:00:48.979Z,9.70
2019-04-28T08:03:20.243Z,10.30
2019-04-28T08:05:50.283Z,10.40
2019-04-28T08:08:20.882Z,10.17
2019-04-28T08:10:50.792Z,10.53
2019-04-28T08:13:20.749Z,10.60
2019-04-28T08:15:50.662Z,11.10
2019-04-28T08:18:20.622Z,10.32
2019-04-28T08:20:50.514Z,10.40
2019-04-28T08:23:20.495Z,9.70
2019-04-28T08:25:50.469Z,9.10
2019-04-28T08:28:20.466Z,9.50
2019-04-28T08:30:50.483Z,10.63
2019-04-28T08:33:22.025Z,8.67
2019-04-28T08:35:51.887Z,10.03
2019-04-28T08:38:21.815Z,8.78
2019-04-28T08:40:51.684Z,9.93
2019-04-28T08:43:21.676Z,9.60
2019-04-28T08:45:51.637Z,9.88
2019-04-28T08:48:21.535Z,9.58
2019-04-28T08:50:51.462Z,8.63
2019-04-28T08:53:21.374Z,8.40
2019-04-28T08:55:51.352Z,8.35
2019-04-28T08:58:21.367Z,8.40
2019-04-28T09:00:51.271Z,9.10
2019-04-28T09:03:21.249Z,8.40
2019-04-28T09:05:51.188Z,8.23
2019-04-28T09:08:21.183Z,8.78
2019-04-28T09:10:51.132Z,7.25
2019-04-28T09:13:20.966Z,6.60
2019-04-28T09:15:50.982Z,8.13
2019-04-28T09:18:20.850Z,7.83
2019-04-28T09:20:50.748Z,7.47
2019-04-28T09:23:20.654Z,7.97
2019-04-28T09:25:51.468Z,7.58
2019-04-28T09:28:21.420Z,8.20
2019-04-28T09:30:51.547Z,7.33
2019-04-28T09:33:21.493Z,7.58
2019-04-28T09:35:51.430Z,7.28
2019-04-28T09:38:21.391Z,7.80
2019-04-28T09:40:51.342Z,7.50
2019-04-28T09:43:35.115Z,9.45
2019-04-28T09:46:06.553Z,7.80
2019-04-28T09:48:36.471Z,7.28
2019-04-28T09:51:06.450Z,7.37
2019-04-28T09:53:36.438Z,7.58
2019-04-28T09:56:06.421Z,7.15
2019-04-28T09:58:36.293Z,6.97
2019-04-28T10:01:06.518Z,7.42
2019-04-28T10:03:36.429Z,7.25
2019-04-28T10:06:06.333Z,7.15
2019-04-28T10:08:36.706Z,7.85
2019-04-28T10:11:06.840Z,8.50
2019-04-28T10:13:36.741Z,7.75
2019-04-28T10:16:06.617Z,7.10
2019-04-28T10:18:36.548Z,8.25
2019-04-28T10:21:06.433Z,7.08
2019-04-28T10:23:36.364Z,7.03
2019-04-28T10:26:06.313Z,7.37
2019-04-28T10:28:36.516Z,7.28
2019-04-28T10:31:07.840Z,7.67
2019-04-28T10:33:39.385Z,7.40
2019-04-28T10:36:09.249Z,7.00
2019-04-28T10:38:40.729Z,6.33
2019-04-28T10:41:14.954Z,6.70
2019-04-28T10:43:44.897Z,6.62
2019-04-28T10:46:14.852Z,6.97
2019-04-28T10:48:44.750Z,7.15
2019-04-28T10:51:14.686Z,7.78
2019-04-28T10:53:44.677Z,6.65
2019-04-28T10:56:14.959Z,6.37
2019-04-28T10:58:46.497Z,6.05
2019-04-28T11:01:16.411Z,5.90
2019-04-28T11:03:47.950Z,5.85
2019-04-28T11:06:17.907Z,5.20
2019-04-28T11:09:05.692Z,5.58
2019-04-28T11:11:37.347Z,5.75
2019-04-28T11:14:07.354Z,5.15
2019-04-28T11:16:38.496Z,5.65
2019-04-28T11:19:10.159Z,5.97
2019-04-28T11:21:40.128Z,5.25
2019-04-28T11:24:10.399Z,5.08
2019-04-28T11:26:40.392Z,5.10
2019-04-28T11:29:10.656Z,5.22
2019-04-28T11:31:40.526Z,5.50
2019-04-28T11:34:27.144Z,5.08
2019-04-28T11:36:57.180Z,3.80
2019-04-28T11:39:28.689Z,4.50
2019-04-28T11:41:58.556Z,4.75
2019-04-28T11:44:28.479Z,4.12
2019-04-28T11:47:01.515Z,4.12
2019-04-28T11:49:31.438Z,4.25
2019-04-28T11:52:01.332Z,4.17
2019-04-28T11:54:31.415Z,4.40
2019-04-28T11:57:01.317Z,3.75
2019-04-28T11:59:31.314Z,4.40
2019-04-28T12:02:01.321Z,4.37
2019-04-28T12:04:31.229Z,4.08
2019-04-28T12:07:01.226Z,3.42
2019-04-28T12:09:35.927Z,3.58
2019-04-28T12:12:13.621Z,3.25
2019-04-28T12:14:51.566Z,3.83
2019-04-28T12:17:26.346Z,3.50
2019-04-28T12:19:57.741Z,3.10
2019-04-28T12:22:27.658Z,3.40
2019-04-28T12:24:57.571Z,2.80
2019-04-28T12:27:27.469Z,3.12
2019-04-28T12:29:57.374Z,2.58
2019-04-28T12:32:27.221Z,2.95
2019-04-28T12:34:57.159Z,2.80
2019-04-28T12:37:27.081Z,3.02
2019-04-28T12:39:57.031Z,2.72
2019-04-28T12:42:26.945Z,2.62
2019-04-28T12:44:56.793Z,2.87
2019-04-28T12:47:26.730Z,2.80
2019-04-28T12:49:58.196Z,2.33
2019-04-28T12:52:29.377Z,2.60
2019-04-28T12:54:59.646Z,2.72
2019-04-28T12:57:29.693Z,2.45
2019-04-28T13:00:16.534Z,2.15
2019-04-28T13:03:04.388Z,2.22
2019-04-28T13:05:35.857Z,2.35
2019-04-28T13:08:05.746Z,2.08
2019-04-28T13:10:35.614Z,2.20
2019-04-28T13:13:06.488Z,2.25
2019-04-28T13:15:36.363Z,1.90
2019-04-28T13:18:06.490Z,2.15
2019-04-28T13:20:36.712Z,2.42
2019-04-28T13:23:06.618Z,2.22
2019-04-28T13:25:36.697Z,2.10
2019-04-28T13:28:06.649Z,2.17
2019-04-28T13:30:36.698Z,1.87
2019-04-28T13:33:07.560Z,1.92
2019-04-28T13:35:37.492Z,1.82
2019-04-28T13:38:07.331Z,1.90
2019-04-28T13:40:38.991Z,1.70
2019-04-28T13:43:08.903Z,1.45
2019-04-28T13:45:38.857Z,1.40
2019-04-28T13:48:08.954Z,1.60
2019-04-28T13:50:39.881Z,1.50
2019-04-28T13:53:09.821Z,1.47
2019-04-28T13:55:47.047Z,1.12
2019-04-28T13:58:18.507Z,1.30
2019-04-28T14:01:08.371Z,1.20
2019-04-28T14:03:51.938Z,1.25
2019-04-28T14:06:28.520Z,1.10
2019-04-28T14:08:55.112Z,1.22
2019-04-28T14:11:25.074Z,1.27
2019-04-28T14:13:55.112Z,1.17
2019-04-28T14:16:25.112Z,1.50
2019-04-28T14:18:55.375Z,1.57
2019-04-28T14:21:25.384Z,1.27
2019-04-28T14:23:55.258Z,9.58
2019-04-28T14:26:25.122Z,1.62
2019-04-28T14:28:55.033Z,1.10
2019-04-28T14:31:24.942Z,1.30
2019-04-28T14:33:54.816Z,1.40
2019-04-28T14:36:25.648Z,1.57
2019-04-28T14:38:55.654Z,1.27
2019-04-28T14:41:25.632Z,1.40
2019-04-28T14:43:55.656Z,1.75
2019-04-28T14:46:25.696Z,2.42
2019-04-28T14:48:56.834Z,1.47
2019-04-28T14:51:26.857Z,2.10
2019-04-28T14:53:56.835Z,1.30
2019-04-28T14:56:26.759Z,1.50
2019-04-28T14:58:56.713Z,1.42
2019-04-28T15:01:40.149Z,1.55
2019-04-28T15:04:11.667Z,1.60
2019-04-28T15:06:55.531Z,1.65
2019-04-28T15:09:19.391Z,1.60
2019-04-28T15:11:54.127Z,1.60
2019-04-28T15:14:23.959Z,1.72
2019-04-28T15:16:53.827Z,2.15
2019-04-28T15:19:23.796Z,1.70
2019-04-28T15:21:54.638Z,1.98
2019-04-28T15:24:24.900Z,1.80
2019-04-28T15:26:54.777Z,1.85
2019-04-28T15:29:24.696Z,2.30
2019-04-28T15:31:54.612Z,9.55
2019-04-28T15:34:24.499Z,2.60
2019-04-28T15:36:54.419Z,1.60
2019-04-28T15:39:24.347Z,1.50
2019-04-28T15:41:54.321Z,1.37
2019-04-28T15:44:24.274Z,1.40
2019-04-28T15:46:54.147Z,1.40
2019-04-28T15:49:24.074Z,1.42
2019-04-28T15:51:53.972Z,1.80
2019-04-28T15:54:23.909Z,1.30
2019-04-28T15:56:53.809Z,1.45
2019-04-28T15:59:23.730Z,1.37
2019-04-28T16:01:53.603Z,1.75
2019-04-28T16:04:23.519Z,1.30
2019-04-28T16:06:53.411Z,1.40
2019-04-28T16:09:23.345Z,1.75
2019-04-28T16:11:53.244Z,1.20
2019-04-28T16:14:23.126Z,1.40
2019-04-28T16:16:53.033Z,0.98
2019-04-28T16:19:22.931Z,1.60
2019-04-28T16:21:52.778Z,1.00
2019-04-28T16:24:22.834Z,1.35
2019-04-28T16:26:52.741Z,1.12
2019-04-28T16:29:23.673Z,1.20
2019-04-28T16:31:53.609Z,1.32
2019-04-28T16:34:23.471Z,9.18
2019-04-28T16:36:53.417Z,67.47
2019-04-28T16:39:23.339Z,5.28
2019-04-28T16:41:53.213Z,1.45
2019-04-28T16:44:23.255Z,1.42
2019-04-28T16:46:53.196Z,1.12
2019-04-28T16:49:23.086Z,1.15
2019-04-28T16:51:52.992Z,1.22
2019-04-28T16:54:23.078Z,1.12
2019-04-28T16:57:00.622Z,1.15
2019-04-28T16:59:32.359Z,1.17
2019-04-28T17:02:06.972Z,1.37
2019-04-28T17:04:36.899Z,1.27
2019-04-28T17:07:06.778Z,1.30
2019-04-28T17:09:36.666Z,1.22
2019-04-28T17:12:06.702Z,1.40
2019-04-28T17:14:36.683Z,1.40
2019-04-28T17:17:06.639Z,1.50
2019-04-28T17:19:36.499Z,1.40
2019-04-28T17:22:06.386Z,1.80
2019-04-28T17:24:36.256Z,1.40
2019-04-28T17:27:06.738Z,1.30
2019-04-28T17:29:38.025Z,1.30
2019-04-28T17:32:08.083Z,1.35
2019-04-28T17:34:38.049Z,1.17
2019-04-28T17:37:08.703Z,1.45
2019-04-28T17:39:38.689Z,1.87
2019-04-28T17:42:08.705Z,1.67
2019-04-28T17:44:38.689Z,1.37
2019-04-28T17:47:08.746Z,1.40
2019-04-28T17:49:38.931Z,1.50
2019-04-28T17:52:10.019Z,1.25
2019-04-28T17:54:39.923Z,1.15
2019-04-28T17:57:09.908Z,1.50
2019-04-28T17:59:39.987Z,1.40
2019-04-28T18:02:27.815Z,1.65
2019-04-28T18:05:15.615Z,1.62
2019-04-28T18:07:47.347Z,1.82
2019-04-28T18:10:17.571Z,1.40
2019-04-28T18:12:59.832Z,1.37
2019-04-28T18:15:23.365Z,1.75
2019-04-28T18:17:57.582Z,1.50
2019-04-28T18:20:27.478Z,1.72
2019-04-28T18:22:57.406Z,2.40
2019-04-28T18:25:27.329Z,5.35
2019-04-28T18:27:57.438Z,2.95
2019-04-28T18:30:29.189Z,1.55
2019-04-28T18:33:17.235Z,1.50
2019-04-28T18:35:48.761Z,1.70
2019-04-28T18:38:36.868Z,1.60
2019-04-28T18:41:24.758Z,1.50
2019-04-28T18:44:08.568Z,1.60
2019-04-28T18:46:38.496Z,1.47
2019-04-28T18:49:08.519Z,1.40
2019-04-28T18:51:38.580Z,1.40
2019-04-28T18:54:08.462Z,1.40
2019-04-28T18:56:38.509Z,1.30
2019-04-28T18:59:08.519Z,1.47
2019-04-28T19:01:43.102Z,1.45
2019-04-28T19:04:13.117Z,1.45
2019-04-28T19:06:43.102Z,1.42
2019-04-28T19:09:30.854Z,1.70
2019-04-28T19:12:02.743Z,1.57
2019-04-28T19:14:37.481Z,1.65
2019-04-28T19:17:11.760Z,1.20
2019-04-28T19:19:42.840Z,1.37
2019-04-28T19:22:13.777Z,1.15
2019-04-28T19:24:43.658Z,1.40
2019-04-28T19:27:13.601Z,1.30
2019-04-28T19:29:43.523Z,1.40
2019-04-28T19:32:13.366Z,1.70
2019-04-28T19:34:43.451Z,1.33
2019-04-28T19:37:13.336Z,1.50
2019-04-28T19:39:43.354Z,1.43
2019-04-28T19:42:13.279Z,1.47
2019-04-28T19:44:43.183Z,1.55
2019-04-28T19:47:13.138Z,1.32
2019-04-28T19:49:43.042Z,1.20
2019-04-28T19:52:14.010Z,1.32
2019-04-28T19:55:03.643Z,1.60
2019-04-28T19:57:42.806Z,1.30
2019-04-28T20:00:27.359Z,1.60
2019-04-28T20:02:57.286Z,1.47
2019-04-28T20:05:27.150Z,2.17
2019-04-28T20:07:57.098Z,2.20
2019-04-28T20:10:27.148Z,2.55
2019-04-28T20:12:57.228Z,2.20
2019-04-28T20:15:27.153Z,2.87
2019-04-28T20:17:57.272Z,2.40
2019-04-28T20:20:27.249Z,2.20
2019-04-28T20:22:57.116Z,2.73
2019-04-28T20:25:27.090Z,1.80
2019-04-28T20:27:57.176Z,1.90
2019-04-28T20:30:27.127Z,1.57
2019-04-28T20:33:06.923Z,2.17
2019-04-28T20:35:33.179Z,1.90
2019-04-28T20:38:04.819Z,2.10
2019-04-28T20:40:46.578Z,2.33
2019-04-28T20:43:21.058Z,2.40
2019-04-28T20:45:50.927Z,2.67
2019-04-28T20:48:20.842Z,2.40
2019-04-28T20:50:50.714Z,2.33
2019-04-28T20:53:21.681Z,2.60
2019-04-28T20:55:51.585Z,2.35
2019-04-28T20:58:21.466Z,3.13
2019-04-28T21:00:51.456Z,2.70
2019-04-28T21:03:21.366Z,3.10
2019-04-28T21:05:51.289Z,3.10
2019-04-28T21:08:21.179Z,3.37
2019-04-28T21:10:51.134Z,2.77
2019-04-28T21:13:21.007Z,3.47
2019-04-28T21:15:50.889Z,3.00
2019-04-28T21:18:20.759Z,3.10
2019-04-28T21:20:51.362Z,3.22
2019-04-28T21:23:21.219Z,3.20
2019-04-28T21:25:51.131Z,3.58
2019-04-28T21:28:21.044Z,3.80
2019-04-28T21:30:50.917Z,3.70
2019-04-28T21:33:20.894Z,3.60
2019-04-28T21:35:50.760Z,3.43
2019-04-28T21:38:20.634Z,3.57
2019-04-28T21:40:50.640Z,4.03
2019-04-28T21:43:24.949Z,3.87
2019-04-28T21:46:02.577Z,3.63
2019-04-28T21:48:37.109Z,3.97
2019-04-28T21:51:07.025Z,2.90
2019-04-28T21:53:37.913Z,4.10
2019-04-28T21:56:07.810Z,3.80
2019-04-28T21:58:37.693Z,3.47
2019-04-28T22:01:08.814Z,3.70
2019-04-28T22:03:40.109Z,3.80
2019-04-28T22:06:10.049Z,3.60
2019-04-28T22:08:40.355Z,3.73
2019-04-28T22:11:10.345Z,4.00
2019-04-28T22:13:40.240Z,4.37
2019-04-28T22:16:10.149Z,3.87
2019-04-28T22:18:40.045Z,4.67
2019-04-28T22:21:09.951Z,3.87
2019-04-28T22:23:41.406Z,3.20
2019-04-28T22:26:12.800Z,3.70
2019-04-28T22:28:42.786Z,3.90
2019-04-28T22:31:12.674Z,3.83
2019-04-28T22:33:42.580Z,3.80
2019-04-28T22:36:12.548Z,3.73
2019-04-28T22:38:42.395Z,3.27
2019-04-28T22:41:12.326Z,3.97
2019-04-28T22:43:42.215Z,4.07
2019-04-28T22:46:12.220Z,3.57
2019-04-28T22:48:42.236Z,3.73
2019-04-28T22:51:12.132Z,3.43
2019-04-28T22:53:42.079Z,4.07
2019-04-28T22:56:24.118Z,3.73
2019-04-28T22:59:09.703Z,3.63
2019-04-28T23:01:41.162Z,2.77
2019-04-28T23:04:12.804Z,3.23
2019-04-28T23:06:42.730Z,3.73
2019-04-28T23:09:14.290Z,3.57
2019-04-28T23:11:44.220Z,3.47
2019-04-28T23:14:14.081Z,3.60
2019-04-28T23:16:44.056Z,3.60
2019-04-28T23:19:16.561Z,3.53
2019-04-28T23:21:54.002Z,3.37
2019-04-28T23:24:23.909Z,3.87
2019-04-28T23:26:53.744Z,3.30
2019-04-28T23:29:23.775Z,3.67
2019-04-28T23:31:53.693Z,3.80
2019-04-28T23:34:23.586Z,3.00
2019-04-28T23:36:53.543Z,3.07
2019-04-28T23:39:23.501Z,3.90
2019-04-28T23:42:04.005Z,3.23
2019-04-28T23:44:34.034Z,3.30
2019-04-28T23:47:04.857Z,4.00
2019-04-28T23:49:34.749Z,3.50
2019-04-28T23:52:06.258Z,3.40
2019-04-28T23:54:40.513Z,4.20
2019-04-28T23:57:10.496Z,3.30
2019-04-28T23:59:40.391Z,3.50
